sensor_id;sensor_type;location;lat;lon;timestamp;temperature;humidity
59148;DHT22;44930;52.878;6.168;2023-09-12T00:01:05;19.10;99.90
59148;DHT22;44930;52.878;6.168;2023-09-12T00:03:32;19.20;99.90
59148;DHT22;44930;52.878;6.168;2023-09-12T00:05:59;19.70;99.90
59148;DHT22;44930;52.878;6.168;2023-09-12T00:08:26;19.20;99.90
59148;DHT22;44930;52.878;6.168;2023-09-12T00:11:02;19.00;99.90
59148;DHT22;44930;52.878;6.168;2023-09-12T00:13:28;18.80;99.90
59148;DHT22;44930;52.878;6.168;2023-09-12T00:15:53;19.10;99.90
59148;DHT22;44930;52.878;6.168;2023-09-12T00:18:19;19.50;99.90
59148;DHT22;44930;52.878;6.168;2023-09-12T00:20:45;19.20;99.90
59148;DHT22;44930;52.878;6.168;2023-09-12T00:23:10;18.80;99.90
59148;DHT22;44930;52.878;6.168;2023-09-12T00:25:36;19.20;99.90
59148;DHT22;44930;52.878;6.168;2023-09-12T00:28:01;19.10;99.90
59148;DHT22;44930;52.878;6.168;2023-09-12T00:30:27;19.10;99.90
59148;DHT22;44930;52.878;6.168;2023-09-12T00:32:52;19.20;99.90
59148;DHT22;44930;52.878;6.168;2023-09-12T00:35:18;19.10;99.90
59148;DHT22;44930;52.878;6.168;2023-09-12T00:37:43;19.10;99.90
59148;DHT22;44930;52.878;6.168;2023-09-12T00:40:09;19.00;99.90
59148;DHT22;44930;52.878;6.168;2023-09-12T00:42:35;19.00;99.90
59148;DHT22;44930;52.878;6.168;2023-09-12T00:45:01;19.00;99.90
59148;DHT22;44930;52.878;6.168;2023-09-12T00:47:27;19.50;99.90
59148;DHT22;44930;52.878;6.168;2023-09-12T00:49:55;18.90;99.90
59148;DHT22;44930;52.878;6.168;2023-09-12T00:52:25;19.00;99.90
59148;DHT22;44930;52.878;6.168;2023-09-12T00:54:51;19.20;99.90
59148;DHT22;44930;52.878;6.168;2023-09-12T00:57:18;19.00;99.90
59148;DHT22;44930;52.878;6.168;2023-09-12T00:59:44;18.90;99.90
59148;DHT22;44930;52.878;6.168;2023-09-12T01:02:09;18.80;99.90
59148;DHT22;44930;52.878;6.168;2023-09-12T01:04:36;18.90;99.90
59148;DHT22;44930;52.878;6.168;2023-09-12T01:07:05;18.80;99.90
59148;DHT22;44930;52.878;6.168;2023-09-12T01:09:32;18.70;99.90
59148;DHT22;44930;52.878;6.168;2023-09-12T01:11:58;18.70;99.90
59148;DHT22;44930;52.878;6.168;2023-09-12T01:14:23;18.90;99.90
59148;DHT22;44930;52.878;6.168;2023-09-12T01:16:49;18.70;99.90
59148;DHT22;44930;52.878;6.168;2023-09-12T01:19:16;18.60;99.90
59148;DHT22;44930;52.878;6.168;2023-09-12T01:21:52;18.60;99.90
59148;DHT22;44930;52.878;6.168;2023-09-12T01:29:39;18.50;99.90
59148;DHT22;44930;52.878;6.168;2023-09-12T01:32:06;18.50;99.90
59148;DHT22;44930;52.878;6.168;2023-09-12T01:34:31;18.40;99.90
59148;DHT22;44930;52.878;6.168;2023-09-12T01:36:57;18.50;99.90
59148;DHT22;44930;52.878;6.168;2023-09-12T01:39:23;18.40;99.90
59148;DHT22;44930;52.878;6.168;2023-09-12T01:41:50;18.50;99.90
59148;DHT22;44930;52.878;6.168;2023-09-12T01:44:18;18.50;99.90
59148;DHT22;44930;52.878;6.168;2023-09-12T01:46:44;18.50;99.90
59148;DHT22;44930;52.878;6.168;2023-09-12T01:49:11;18.30;99.90
59148;DHT22;44930;52.878;6.168;2023-09-12T01:51:38;18.50;99.90
59148;DHT22;44930;52.878;6.168;2023-09-12T01:54:05;18.50;99.90
59148;DHT22;44930;52.878;6.168;2023-09-12T01:56:32;18.50;99.90
59148;DHT22;44930;52.878;6.168;2023-09-12T01:58:58;18.30;99.90
59148;DHT22;44930;52.878;6.168;2023-09-12T02:01:24;18.60;99.90
59148;DHT22;44930;52.878;6.168;2023-09-12T02:03:52;18.50;99.90
59148;DHT22;44930;52.878;6.168;2023-09-12T02:06:17;18.60;99.90
59148;DHT22;44930;52.878;6.168;2023-09-12T02:08:43;18.50;99.90
59148;DHT22;44930;52.878;6.168;2023-09-12T02:11:08;18.40;99.90
59148;DHT22;44930;52.878;6.168;2023-09-12T02:13:34;18.50;99.90
59148;DHT22;44930;52.878;6.168;2023-09-12T02:16:00;18.80;99.90
59148;DHT22;44930;52.878;6.168;2023-09-12T02:18:26;18.60;99.90
59148;DHT22;44930;52.878;6.168;2023-09-12T02:20:51;18.50;99.90
59148;DHT22;44930;52.878;6.168;2023-09-12T02:23:17;18.50;99.90
59148;DHT22;44930;52.878;6.168;2023-09-12T02:25:42;18.40;99.90
59148;DHT22;44930;52.878;6.168;2023-09-12T02:28:08;18.40;99.90
59148;DHT22;44930;52.878;6.168;2023-09-12T02:30:33;18.50;99.90
59148;DHT22;44930;52.878;6.168;2023-09-12T02:35:27;18.50;99.90
59148;DHT22;44930;52.878;6.168;2023-09-12T02:37:53;18.40;99.90
59148;DHT22;44930;52.878;6.168;2023-09-12T02:40:19;18.50;99.90
59148;DHT22;44930;52.878;6.168;2023-09-12T02:42:44;18.50;99.90
59148;DHT22;44930;52.878;6.168;2023-09-12T02:45:10;18.60;99.90
59148;DHT22;44930;52.878;6.168;2023-09-12T02:47:35;18.50;99.90
59148;DHT22;44930;52.878;6.168;2023-09-12T02:50:01;18.50;99.90
59148;DHT22;44930;52.878;6.168;2023-09-12T02:52:26;18.70;99.90
59148;DHT22;44930;52.878;6.168;2023-09-12T02:54:52;18.50;99.90
59148;DHT22;44930;52.878;6.168;2023-09-12T02:57:18;18.40;99.90
59148;DHT22;44930;52.878;6.168;2023-09-12T02:59:43;18.80;99.90
59148;DHT22;44930;52.878;6.168;2023-09-12T03:02:09;18.40;99.90
59148;DHT22;44930;52.878;6.168;2023-09-12T03:04:35;18.40;99.90
59148;DHT22;44930;52.878;6.168;2023-09-12T03:07:01;18.50;99.90
59148;DHT22;44930;52.878;6.168;2023-09-12T03:09:27;18.30;99.90
59148;DHT22;44930;52.878;6.168;2023-09-12T03:11:52;18.40;99.90
59148;DHT22;44930;52.878;6.168;2023-09-12T03:14:18;18.50;99.90
59148;DHT22;44930;52.878;6.168;2023-09-12T03:16:43;18.50;99.90
59148;DHT22;44930;52.878;6.168;2023-09-12T03:19:09;18.40;99.90
59148;DHT22;44930;52.878;6.168;2023-09-12T03:21:34;18.30;99.90
59148;DHT22;44930;52.878;6.168;2023-09-12T03:24:00;18.60;99.90
59148;DHT22;44930;52.878;6.168;2023-09-12T03:28:52;18.50;99.90
59148;DHT22;44930;52.878;6.168;2023-09-12T03:31:18;18.50;99.90
59148;DHT22;44930;52.878;6.168;2023-09-12T03:33:44;18.50;99.90
59148;DHT22;44930;52.878;6.168;2023-09-12T03:36:15;18.40;99.90
59148;DHT22;44930;52.878;6.168;2023-09-12T03:38:41;18.40;99.90
59148;DHT22;44930;52.878;6.168;2023-09-12T03:41:07;18.40;99.90
59148;DHT22;44930;52.878;6.168;2023-09-12T03:43:33;18.30;99.90
59148;DHT22;44930;52.878;6.168;2023-09-12T03:45:59;18.00;99.90
59148;DHT22;44930;52.878;6.168;2023-09-12T03:48:25;18.20;99.90
59148;DHT22;44930;52.878;6.168;2023-09-12T03:50:50;18.20;99.90
59148;DHT22;44930;52.878;6.168;2023-09-12T03:53:16;18.40;99.90
59148;DHT22;44930;52.878;6.168;2023-09-12T03:55:43;17.70;99.90
59148;DHT22;44930;52.878;6.168;2023-09-12T03:58:08;18.30;99.90
59148;DHT22;44930;52.878;6.168;2023-09-12T04:00:34;18.20;99.90
59148;DHT22;44930;52.878;6.168;2023-09-12T04:02:59;18.30;99.90
59148;DHT22;44930;52.878;6.168;2023-09-12T04:05:26;18.20;99.90
59148;DHT22;44930;52.878;6.168;2023-09-12T04:07:51;18.30;99.90
59148;DHT22;44930;52.878;6.168;2023-09-12T04:10:19;18.10;99.90
59148;DHT22;44930;52.878;6.168;2023-09-12T04:12:45;18.10;99.90
59148;DHT22;44930;52.878;6.168;2023-09-12T04:15:11;18.20;99.90
59148;DHT22;44930;52.878;6.168;2023-09-12T04:17:36;18.20;99.90
59148;DHT22;44930;52.878;6.168;2023-09-12T04:20:02;18.20;99.90
59148;DHT22;44930;52.878;6.168;2023-09-12T04:22:29;18.10;99.90
59148;DHT22;44930;52.878;6.168;2023-09-12T04:24:55;18.10;99.90
59148;DHT22;44930;52.878;6.168;2023-09-12T04:27:20;18.10;99.90
59148;DHT22;44930;52.878;6.168;2023-09-12T04:29:46;18.40;99.90
59148;DHT22;44930;52.878;6.168;2023-09-12T04:32:12;18.10;99.90
59148;DHT22;44930;52.878;6.168;2023-09-12T04:34:37;18.10;99.90
59148;DHT22;44930;52.878;6.168;2023-09-12T04:37:03;18.10;99.90
59148;DHT22;44930;52.878;6.168;2023-09-12T04:39:30;18.10;99.90
59148;DHT22;44930;52.878;6.168;2023-09-12T04:41:56;18.00;99.90
59148;DHT22;44930;52.878;6.168;2023-09-12T04:44:22;18.10;99.90
59148;DHT22;44930;52.878;6.168;2023-09-12T04:46:47;18.10;99.90
59148;DHT22;44930;52.878;6.168;2023-09-12T04:49:13;18.10;99.90
59148;DHT22;44930;52.878;6.168;2023-09-12T04:51:39;18.00;99.90
59148;DHT22;44930;52.878;6.168;2023-09-12T04:54:05;17.90;99.90
59148;DHT22;44930;52.878;6.168;2023-09-12T04:56:31;18.10;99.90
59148;DHT22;44930;52.878;6.168;2023-09-12T04:58:56;18.10;99.90
59148;DHT22;44930;52.878;6.168;2023-09-12T05:01:22;18.20;99.90
59148;DHT22;44930;52.878;6.168;2023-09-12T05:03:47;18.00;99.90
59148;DHT22;44930;52.878;6.168;2023-09-12T05:06:13;18.10;99.90
59148;DHT22;44930;52.878;6.168;2023-09-12T05:08:39;18.00;99.90
59148;DHT22;44930;52.878;6.168;2023-09-12T05:11:05;18.00;99.90
59148;DHT22;44930;52.878;6.168;2023-09-12T05:13:30;18.00;99.90
59148;DHT22;44930;52.878;6.168;2023-09-12T05:15:56;18.00;99.90
59148;DHT22;44930;52.878;6.168;2023-09-12T05:18:24;18.10;99.90
59148;DHT22;44930;52.878;6.168;2023-09-12T05:20:50;18.10;99.90
59148;DHT22;44930;52.878;6.168;2023-09-12T05:23:15;18.00;99.90
59148;DHT22;44930;52.878;6.168;2023-09-12T05:25:41;17.80;99.90
59148;DHT22;44930;52.878;6.168;2023-09-12T05:28:06;18.00;99.90
59148;DHT22;44930;52.878;6.168;2023-09-12T05:30:32;18.00;99.90
59148;DHT22;44930;52.878;6.168;2023-09-12T05:32:58;18.10;99.90
59148;DHT22;44930;52.878;6.168;2023-09-12T05:35:24;17.90;99.90
59148;DHT22;44930;52.878;6.168;2023-09-12T05:37:50;18.00;99.90
59148;DHT22;44930;52.878;6.168;2023-09-12T05:40:15;18.20;99.90
59148;DHT22;44930;52.878;6.168;2023-09-12T05:42:41;17.90;99.90
59148;DHT22;44930;52.878;6.168;2023-09-12T05:45:07;18.00;99.90
59148;DHT22;44930;52.878;6.168;2023-09-12T05:47:32;18.00;99.90
59148;DHT22;44930;52.878;6.168;2023-09-12T05:49:58;18.20;99.90
59148;DHT22;44930;52.878;6.168;2023-09-12T05:52:26;18.10;99.90
59148;DHT22;44930;52.878;6.168;2023-09-12T05:54:51;17.80;99.90
59148;DHT22;44930;52.878;6.168;2023-09-12T05:57:17;18.00;99.90
59148;DHT22;44930;52.878;6.168;2023-09-12T05:59:42;18.10;99.90
59148;DHT22;44930;52.878;6.168;2023-09-12T06:02:09;18.10;99.90
59148;DHT22;44930;52.878;6.168;2023-09-12T06:04:35;18.00;99.90
59148;DHT22;44930;52.878;6.168;2023-09-12T06:07:02;18.10;99.90
59148;DHT22;44930;52.878;6.168;2023-09-12T06:09:28;18.10;99.90
59148;DHT22;44930;52.878;6.168;2023-09-12T06:11:53;18.20;99.90
59148;DHT22;44930;52.878;6.168;2023-09-12T06:14:19;18.10;99.90
59148;DHT22;44930;52.878;6.168;2023-09-12T06:16:45;18.00;99.90
59148;DHT22;44930;52.878;6.168;2023-09-12T06:19:10;18.20;99.90
59148;DHT22;44930;52.878;6.168;2023-09-12T06:21:36;18.10;99.90
59148;DHT22;44930;52.878;6.168;2023-09-12T06:26:34;18.20;99.90
59148;DHT22;44930;52.878;6.168;2023-09-12T06:29:00;18.30;99.90
59148;DHT22;44930;52.878;6.168;2023-09-12T06:31:25;18.00;99.90
59148;DHT22;44930;52.878;6.168;2023-09-12T06:33:51;18.30;99.90
59148;DHT22;44930;52.878;6.168;2023-09-12T06:36:16;18.30;99.90
59148;DHT22;44930;52.878;6.168;2023-09-12T06:38:42;18.20;99.90
59148;DHT22;44930;52.878;6.168;2023-09-12T06:41:07;18.40;99.90
59148;DHT22;44930;52.878;6.168;2023-09-12T06:43:33;18.30;99.90
59148;DHT22;44930;52.878;6.168;2023-09-12T06:45:58;18.30;99.90
59148;DHT22;44930;52.878;6.168;2023-09-12T06:48:24;18.40;99.90
59148;DHT22;44930;52.878;6.168;2023-09-12T06:50:50;18.40;99.90
59148;DHT22;44930;52.878;6.168;2023-09-12T06:53:15;18.30;99.90
59148;DHT22;44930;52.878;6.168;2023-09-12T06:55:41;18.40;99.90
59148;DHT22;44930;52.878;6.168;2023-09-12T06:58:06;18.50;99.90
59148;DHT22;44930;52.878;6.168;2023-09-12T07:00:33;18.40;99.90
59148;DHT22;44930;52.878;6.168;2023-09-12T07:02:58;18.40;99.90
59148;DHT22;44930;52.878;6.168;2023-09-12T07:05:24;18.30;99.90
59148;DHT22;44930;52.878;6.168;2023-09-12T07:07:50;18.40;99.90
59148;DHT22;44930;52.878;6.168;2023-09-12T07:10:16;18.50;99.90
59148;DHT22;44930;52.878;6.168;2023-09-12T07:12:41;18.40;99.90
59148;DHT22;44930;52.878;6.168;2023-09-12T07:15:07;18.50;99.90
59148;DHT22;44930;52.878;6.168;2023-09-12T07:17:32;18.50;99.90
59148;DHT22;44930;52.878;6.168;2023-09-12T07:19:58;18.10;99.90
59148;DHT22;44930;52.878;6.168;2023-09-12T07:22:24;18.60;99.90
59148;DHT22;44930;52.878;6.168;2023-09-12T07:24:49;18.60;99.90
59148;DHT22;44930;52.878;6.168;2023-09-12T07:27:15;18.60;99.90
59148;DHT22;44930;52.878;6.168;2023-09-12T07:29:40;18.30;99.90
59148;DHT22;44930;52.878;6.168;2023-09-12T07:32:06;18.80;99.90
59148;DHT22;44930;52.878;6.168;2023-09-12T07:34:31;18.90;99.90
59148;DHT22;44930;52.878;6.168;2023-09-12T07:36:57;18.70;99.90
59148;DHT22;44930;52.878;6.168;2023-09-12T07:39:22;18.80;99.90
59148;DHT22;44930;52.878;6.168;2023-09-12T07:41:48;19.00;99.90
59148;DHT22;44930;52.878;6.168;2023-09-12T07:44:13;19.20;99.90
59148;DHT22;44930;52.878;6.168;2023-09-12T07:46:41;18.90;99.90
59148;DHT22;44930;52.878;6.168;2023-09-12T07:49:06;19.20;99.90
59148;DHT22;44930;52.878;6.168;2023-09-12T07:51:34;18.80;99.90
59148;DHT22;44930;52.878;6.168;2023-09-12T07:54:00;18.90;99.90
59148;DHT22;44930;52.878;6.168;2023-09-12T07:56:26;18.90;99.90
59148;DHT22;44930;52.878;6.168;2023-09-12T07:58:52;18.90;99.90
59148;DHT22;44930;52.878;6.168;2023-09-12T08:01:17;18.90;99.90
59148;DHT22;44930;52.878;6.168;2023-09-12T08:03:43;19.00;99.90
59148;DHT22;44930;52.878;6.168;2023-09-12T08:06:09;19.00;99.90
59148;DHT22;44930;52.878;6.168;2023-09-12T08:08:35;19.00;99.90
59148;DHT22;44930;52.878;6.168;2023-09-12T08:11:00;19.10;99.90
59148;DHT22;44930;52.878;6.168;2023-09-12T08:13:27;19.20;99.90
59148;DHT22;44930;52.878;6.168;2023-09-12T08:15:53;19.00;99.90
59148;DHT22;44930;52.878;6.168;2023-09-12T08:18:19;19.10;99.90
59148;DHT22;44930;52.878;6.168;2023-09-12T08:20:47;18.80;99.90
59148;DHT22;44930;52.878;6.168;2023-09-12T08:23:13;19.30;99.90
59148;DHT22;44930;52.878;6.168;2023-09-12T08:25:39;19.10;99.90
59148;DHT22;44930;52.878;6.168;2023-09-12T08:28:05;19.30;99.90
59148;DHT22;44930;52.878;6.168;2023-09-12T08:30:31;19.30;99.90
59148;DHT22;44930;52.878;6.168;2023-09-12T08:32:56;19.30;99.90
59148;DHT22;44930;52.878;6.168;2023-09-12T08:35:22;19.30;99.90
59148;DHT22;44930;52.878;6.168;2023-09-12T08:37:48;19.80;99.90
59148;DHT22;44930;52.878;6.168;2023-09-12T08:40:13;19.90;99.90
59148;DHT22;44930;52.878;6.168;2023-09-12T08:42:43;19.90;99.90
59148;DHT22;44930;52.878;6.168;2023-09-12T08:45:13;20.10;99.90
59148;DHT22;44930;52.878;6.168;2023-09-12T08:47:44;20.10;99.90
59148;DHT22;44930;52.878;6.168;2023-09-12T08:50:12;20.20;99.90
59148;DHT22;44930;52.878;6.168;2023-09-12T08:52:39;20.70;99.90
59148;DHT22;44930;52.878;6.168;2023-09-12T08:55:05;20.10;99.90
59148;DHT22;44930;52.878;6.168;2023-09-12T08:57:33;20.60;99.90
59148;DHT22;44930;52.878;6.168;2023-09-12T09:00:00;21.00;99.90
59148;DHT22;44930;52.878;6.168;2023-09-12T09:02:30;20.50;99.90
59148;DHT22;44930;52.878;6.168;2023-09-12T09:04:56;20.60;99.90
59148;DHT22;44930;52.878;6.168;2023-09-12T09:07:23;20.90;99.90
59148;DHT22;44930;52.878;6.168;2023-09-12T09:09:49;20.50;99.90
59148;DHT22;44930;52.878;6.168;2023-09-12T09:12:17;20.70;99.90
59148;DHT22;44930;52.878;6.168;2023-09-12T09:14:42;20.90;99.90
59148;DHT22;44930;52.878;6.168;2023-09-12T09:17:08;20.80;99.90
59148;DHT22;44930;52.878;6.168;2023-09-12T09:19:43;20.70;99.90
59148;DHT22;44930;52.878;6.168;2023-09-12T09:22:09;20.70;99.90
59148;DHT22;44930;52.878;6.168;2023-09-12T09:24:35;20.90;99.90
59148;DHT22;44930;52.878;6.168;2023-09-12T09:27:00;20.60;99.90
59148;DHT22;44930;52.878;6.168;2023-09-12T09:29:27;20.40;99.90
59148;DHT22;44930;52.878;6.168;2023-09-12T09:32:00;20.20;99.90
59148;DHT22;44930;52.878;6.168;2023-09-12T09:34:26;20.50;99.90
59148;DHT22;44930;52.878;6.168;2023-09-12T09:36:56;20.40;99.90
59148;DHT22;44930;52.878;6.168;2023-09-12T09:39:27;21.00;99.90
59148;DHT22;44930;52.878;6.168;2023-09-12T09:41:55;21.10;99.90
59148;DHT22;44930;52.878;6.168;2023-09-12T09:44:23;20.30;99.90
59148;DHT22;44930;52.878;6.168;2023-09-12T09:46:54;20.90;99.90
59148;DHT22;44930;52.878;6.168;2023-09-12T09:49:21;20.90;99.90
59148;DHT22;44930;52.878;6.168;2023-09-12T09:51:47;20.80;99.90
59148;DHT22;44930;52.878;6.168;2023-09-12T09:54:13;21.20;99.90
59148;DHT22;44930;52.878;6.168;2023-09-12T09:56:50;20.60;99.90
59148;DHT22;44930;52.878;6.168;2023-09-12T09:59:23;21.00;99.90
59148;DHT22;44930;52.878;6.168;2023-09-12T10:01:50;21.00;99.90
59148;DHT22;44930;52.878;6.168;2023-09-12T10:04:17;21.10;99.90
59148;DHT22;44930;52.878;6.168;2023-09-12T10:06:45;21.30;99.90
59148;DHT22;44930;52.878;6.168;2023-09-12T10:09:12;20.90;99.90
59148;DHT22;44930;52.878;6.168;2023-09-12T10:11:43;21.30;99.90
59148;DHT22;44930;52.878;6.168;2023-09-12T10:14:11;21.00;99.90
59148;DHT22;44930;52.878;6.168;2023-09-12T10:16:48;21.50;99.90
59148;DHT22;44930;52.878;6.168;2023-09-12T10:19:24;21.50;99.90
59148;DHT22;44930;52.878;6.168;2023-09-12T10:22:06;22.00;99.90
59148;DHT22;44930;52.878;6.168;2023-09-12T10:24:33;21.60;99.90
59148;DHT22;44930;52.878;6.168;2023-09-12T10:27:00;21.40;99.90
59148;DHT22;44930;52.878;6.168;2023-09-12T10:29:27;21.80;99.90
59148;DHT22;44930;52.878;6.168;2023-09-12T10:31:53;22.40;99.90
59148;DHT22;44930;52.878;6.168;2023-09-12T10:34:20;22.40;99.90
59148;DHT22;44930;52.878;6.168;2023-09-12T10:36:46;22.30;99.90
59148;DHT22;44930;52.878;6.168;2023-09-12T10:39:14;22.20;99.90
59148;DHT22;44930;52.878;6.168;2023-09-12T10:41:40;22.60;99.90
59148;DHT22;44930;52.878;6.168;2023-09-12T10:44:11;21.90;99.90
59148;DHT22;44930;52.878;6.168;2023-09-12T10:46:41;22.10;99.90
59148;DHT22;44930;52.878;6.168;2023-09-12T10:49:08;22.30;99.90
59148;DHT22;44930;52.878;6.168;2023-09-12T10:51:37;22.00;99.90
59148;DHT22;44930;52.878;6.168;2023-09-12T10:54:04;23.50;99.90
59148;DHT22;44930;52.878;6.168;2023-09-12T10:56:29;22.80;99.90
59148;DHT22;44930;52.878;6.168;2023-09-12T11:01:44;22.10;99.90
59148;DHT22;44930;52.878;6.168;2023-09-12T11:06:49;22.30;99.90
59148;DHT22;44930;52.878;6.168;2023-09-12T11:09:19;21.90;99.90
59148;DHT22;44930;52.878;6.168;2023-09-12T11:11:47;22.40;99.90
59148;DHT22;44930;52.878;6.168;2023-09-12T11:14:14;22.10;99.90
59148;DHT22;44930;52.878;6.168;2023-09-12T11:16:41;22.20;99.90
59148;DHT22;44930;52.878;6.168;2023-09-12T11:19:17;22.50;99.90
59148;DHT22;44930;52.878;6.168;2023-09-12T11:21:49;22.60;99.90
59148;DHT22;44930;52.878;6.168;2023-09-12T11:24:16;22.70;99.90
59148;DHT22;44930;52.878;6.168;2023-09-12T11:27:01;22.80;99.90
59148;DHT22;44930;52.878;6.168;2023-09-12T11:29:34;22.80;99.90
59148;DHT22;44930;52.878;6.168;2023-09-12T11:32:00;22.40;99.90
59148;DHT22;44930;52.878;6.168;2023-09-12T11:34:29;22.70;99.90
59148;DHT22;44930;52.878;6.168;2023-09-12T11:36:59;22.70;99.90
59148;DHT22;44930;52.878;6.168;2023-09-12T11:39:31;21.90;99.90
59148;DHT22;44930;52.878;6.168;2023-09-12T11:41:59;22.50;99.90
59148;DHT22;44930;52.878;6.168;2023-09-12T11:44:25;21.90;99.90
59148;DHT22;44930;52.878;6.168;2023-09-12T11:46:52;22.40;99.90
59148;DHT22;44930;52.878;6.168;2023-09-12T11:49:18;21.80;99.90
59148;DHT22;44930;52.878;6.168;2023-09-12T11:51:50;22.50;99.90
59148;DHT22;44930;52.878;6.168;2023-09-12T11:54:29;21.80;99.90
59148;DHT22;44930;52.878;6.168;2023-09-12T11:56:54;22.10;99.90
59148;DHT22;44930;52.878;6.168;2023-09-12T11:59:23;22.00;99.90
59148;DHT22;44930;52.878;6.168;2023-09-12T12:01:48;21.80;99.90
59148;DHT22;44930;52.878;6.168;2023-09-12T12:04:14;21.70;99.90
59148;DHT22;44930;52.878;6.168;2023-09-12T12:06:40;21.40;99.90
59148;DHT22;44930;52.878;6.168;2023-09-12T12:09:06;21.70;99.90
59148;DHT22;44930;52.878;6.168;2023-09-12T12:11:32;21.10;99.90
59148;DHT22;44930;52.878;6.168;2023-09-12T12:13:58;21.20;99.90
59148;DHT22;44930;52.878;6.168;2023-09-12T12:16:33;21.40;99.90
59148;DHT22;44930;52.878;6.168;2023-09-12T12:18:59;21.60;99.90
59148;DHT22;44930;52.878;6.168;2023-09-12T12:21:25;21.60;99.90
59148;DHT22;44930;52.878;6.168;2023-09-12T12:24:00;23.30;99.90
59148;DHT22;44930;52.878;6.168;2023-09-12T12:26:26;22.10;99.90
59148;DHT22;44930;52.878;6.168;2023-09-12T12:28:52;22.30;99.90
59148;DHT22;44930;52.878;6.168;2023-09-12T12:31:18;22.80;99.90
59148;DHT22;44930;52.878;6.168;2023-09-12T12:33:54;21.90;99.90
59148;DHT22;44930;52.878;6.168;2023-09-12T12:36:20;22.40;99.90
59148;DHT22;44930;52.878;6.168;2023-09-12T12:38:47;22.60;99.90
59148;DHT22;44930;52.878;6.168;2023-09-12T12:41:15;22.40;99.90
59148;DHT22;44930;52.878;6.168;2023-09-12T12:43:41;22.60;99.90
59148;DHT22;44930;52.878;6.168;2023-09-12T12:46:11;22.70;99.90
59148;DHT22;44930;52.878;6.168;2023-09-12T12:48:37;22.70;99.90
59148;DHT22;44930;52.878;6.168;2023-09-12T12:51:25;22.60;99.90
59148;DHT22;44930;52.878;6.168;2023-09-12T12:53:53;22.70;99.90
59148;DHT22;44930;52.878;6.168;2023-09-12T12:56:27;23.20;99.90
59148;DHT22;44930;52.878;6.168;2023-09-12T12:58:59;22.60;99.90
59148;DHT22;44930;52.878;6.168;2023-09-12T13:01:28;22.40;99.90
59148;DHT22;44930;52.878;6.168;2023-09-12T13:03:54;22.20;99.90
59148;DHT22;44930;52.878;6.168;2023-09-12T13:06:21;21.90;99.90
59148;DHT22;44930;52.878;6.168;2023-09-12T13:08:48;22.60;99.90
59148;DHT22;44930;52.878;6.168;2023-09-12T13:11:15;21.90;99.90
59148;DHT22;44930;52.878;6.168;2023-09-12T13:13:42;21.90;99.90
59148;DHT22;44930;52.878;6.168;2023-09-12T13:16:09;22.20;99.90
59148;DHT22;44930;52.878;6.168;2023-09-12T13:18:39;22.00;99.90
59148;DHT22;44930;52.878;6.168;2023-09-12T13:21:04;21.60;99.90
59148;DHT22;44930;52.878;6.168;2023-09-12T13:23:31;22.40;99.90
59148;DHT22;44930;52.878;6.168;2023-09-12T13:25:57;22.60;99.90
59148;DHT22;44930;52.878;6.168;2023-09-12T13:28:23;21.60;99.90
59148;DHT22;44930;52.878;6.168;2023-09-12T13:30:55;22.00;99.90
59148;DHT22;44930;52.878;6.168;2023-09-12T13:33:21;22.50;99.90
59148;DHT22;44930;52.878;6.168;2023-09-12T13:35:48;22.00;99.90
59148;DHT22;44930;52.878;6.168;2023-09-12T13:38:14;22.20;99.90
59148;DHT22;44930;52.878;6.168;2023-09-12T13:40:43;22.30;99.90
59148;DHT22;44930;52.878;6.168;2023-09-12T13:43:09;22.50;99.90
59148;DHT22;44930;52.878;6.168;2023-09-12T13:45:35;22.00;99.90
59148;DHT22;44930;52.878;6.168;2023-09-12T13:48:02;21.90;99.90
59148;DHT22;44930;52.878;6.168;2023-09-12T13:50:29;21.80;99.90
59148;DHT22;44930;52.878;6.168;2023-09-12T13:52:58;22.20;99.90
59148;DHT22;44930;52.878;6.168;2023-09-12T13:55:35;22.30;99.90
59148;DHT22;44930;52.878;6.168;2023-09-12T13:58:04;22.10;99.90
59148;DHT22;44930;52.878;6.168;2023-09-12T14:00:31;22.70;99.90
59148;DHT22;44930;52.878;6.168;2023-09-12T14:02:57;24.00;99.90
59148;DHT22;44930;52.878;6.168;2023-09-12T14:05:23;22.70;99.90
59148;DHT22;44930;52.878;6.168;2023-09-12T14:07:48;23.30;99.90
59148;DHT22;44930;52.878;6.168;2023-09-12T14:10:15;23.10;99.90
59148;DHT22;44930;52.878;6.168;2023-09-12T14:12:40;22.60;99.90
59148;DHT22;44930;52.878;6.168;2023-09-12T14:15:07;22.70;99.90
59148;DHT22;44930;52.878;6.168;2023-09-12T14:17:33;22.90;99.90
59148;DHT22;44930;52.878;6.168;2023-09-12T14:19:58;23.10;99.90
59148;DHT22;44930;52.878;6.168;2023-09-12T14:22:24;22.90;99.90
59148;DHT22;44930;52.878;6.168;2023-09-12T14:24:50;23.10;99.90
59148;DHT22;44930;52.878;6.168;2023-09-12T14:27:15;23.10;99.90
59148;DHT22;44930;52.878;6.168;2023-09-12T14:29:41;22.80;99.90
59148;DHT22;44930;52.878;6.168;2023-09-12T14:32:11;22.70;99.90
59148;DHT22;44930;52.878;6.168;2023-09-12T14:34:36;22.70;99.90
59148;DHT22;44930;52.878;6.168;2023-09-12T14:37:02;22.70;99.90
59148;DHT22;44930;52.878;6.168;2023-09-12T14:39:27;23.20;99.90
59148;DHT22;44930;52.878;6.168;2023-09-12T14:41:53;23.00;99.90
59148;DHT22;44930;52.878;6.168;2023-09-12T14:44:20;23.30;99.90
59148;DHT22;44930;52.878;6.168;2023-09-12T14:46:46;23.20;99.90
59148;DHT22;44930;52.878;6.168;2023-09-12T14:49:11;24.60;99.90
59148;DHT22;44930;52.878;6.168;2023-09-12T14:51:37;23.30;99.90
59148;DHT22;44930;52.878;6.168;2023-09-12T14:54:03;23.30;99.90
59148;DHT22;44930;52.878;6.168;2023-09-12T14:56:29;23.40;99.90
59148;DHT22;44930;52.878;6.168;2023-09-12T14:58:55;23.30;99.90
59148;DHT22;44930;52.878;6.168;2023-09-12T15:01:20;23.20;99.90
59148;DHT22;44930;52.878;6.168;2023-09-12T15:03:46;24.00;99.90
59148;DHT22;44930;52.878;6.168;2023-09-12T15:06:12;23.20;99.90
59148;DHT22;44930;52.878;6.168;2023-09-12T15:08:37;22.50;99.90
59148;DHT22;44930;52.878;6.168;2023-09-12T15:11:03;22.30;99.90
59148;DHT22;44930;52.878;6.168;2023-09-12T15:13:29;22.40;99.90
59148;DHT22;44930;52.878;6.168;2023-09-12T15:15:55;23.10;99.90
59148;DHT22;44930;52.878;6.168;2023-09-12T15:18:20;22.90;99.90
59148;DHT22;44930;52.878;6.168;2023-09-12T15:20:46;22.60;99.90
59148;DHT22;44930;52.878;6.168;2023-09-12T15:23:11;23.10;99.90
59148;DHT22;44930;52.878;6.168;2023-09-12T15:25:37;23.70;99.90
59148;DHT22;44930;52.878;6.168;2023-09-12T15:28:03;24.20;99.90
59148;DHT22;44930;52.878;6.168;2023-09-12T15:30:29;24.80;99.90
59148;DHT22;44930;52.878;6.168;2023-09-12T15:32:54;24.40;99.90
59148;DHT22;44930;52.878;6.168;2023-09-12T15:35:20;23.60;99.90
59148;DHT22;44930;52.878;6.168;2023-09-12T15:37:45;24.00;99.90
59148;DHT22;44930;52.878;6.168;2023-09-12T15:40:11;24.10;99.90
59148;DHT22;44930;52.878;6.168;2023-09-12T15:42:37;24.80;99.90
59148;DHT22;44930;52.878;6.168;2023-09-12T15:45:03;24.40;99.90